sensor_id;sensor_type;location;lat;lon;timestamp;temperature;humidity
43987;DHT22;29650;47.378;8.300;2023-04-06T00:00:18;2.70;78.70
43987;DHT22;29650;47.378;8.300;2023-04-06T00:02:46;2.70;79.50
43987;DHT22;29650;47.378;8.300;2023-04-06T00:05:13;2.60;79.00
43987;DHT22;29650;47.378;8.300;2023-04-06T00:07:41;2.70;78.70
43987;DHT22;29650;47.378;8.300;2023-04-06T00:10:09;2.70;78.50
43987;DHT22;29650;47.378;8.300;2023-04-06T00:12:36;2.60;78.10
43987;DHT22;29650;47.378;8.300;2023-04-06T00:15:03;2.50;78.00
43987;DHT22;29650;47.378;8.300;2023-04-06T00:17:32;2.60;77.00
43987;DHT22;29650;47.378;8.300;2023-04-06T00:19:59;2.60;76.60
43987;DHT22;29650;47.378;8.300;2023-04-06T00:22:26;2.80;75.80
43987;DHT22;29650;47.378;8.300;2023-04-06T00:24:53;2.50;74.90
43987;DHT22;29650;47.378;8.300;2023-04-06T00:27:20;2.70;74.70
43987;DHT22;29650;47.378;8.300;2023-04-06T00:29:47;2.60;74.80
43987;DHT22;29650;47.378;8.300;2023-04-06T00:32:14;2.50;74.90
43987;DHT22;29650;47.378;8.300;2023-04-06T00:34:43;2.50;74.80
43987;DHT22;29650;47.378;8.300;2023-04-06T00:37:11;2.50;74.70
43987;DHT22;29650;47.378;8.300;2023-04-06T00:39:38;2.50;74.90
43987;DHT22;29650;47.378;8.300;2023-04-06T00:42:10;2.50;74.70
43987;DHT22;29650;47.378;8.300;2023-04-06T00:44:38;2.60;74.60
43987;DHT22;29650;47.378;8.300;2023-04-06T00:47:05;2.50;74.10
43987;DHT22;29650;47.378;8.300;2023-04-06T00:49:32;2.50;74.10
43987;DHT22;29650;47.378;8.300;2023-04-06T00:52:01;2.20;74.10
43987;DHT22;29650;47.378;8.300;2023-04-06T00:54:29;2.20;74.30
43987;DHT22;29650;47.378;8.300;2023-04-06T00:56:57;2.10;74.80
43987;DHT22;29650;47.378;8.300;2023-04-06T00:59:24;2.20;74.70
43987;DHT22;29650;47.378;8.300;2023-04-06T01:01:51;2.10;74.50
43987;DHT22;29650;47.378;8.300;2023-04-06T01:04:18;2.10;74.20
43987;DHT22;29650;47.378;8.300;2023-04-06T01:06:45;2.10;74.90
43987;DHT22;29650;47.378;8.300;2023-04-06T01:09:13;2.10;74.90
43987;DHT22;29650;47.378;8.300;2023-04-06T01:11:41;2.00;74.90
43987;DHT22;29650;47.378;8.300;2023-04-06T01:14:08;2.00;75.90
43987;DHT22;29650;47.378;8.300;2023-04-06T01:16:35;2.00;75.80
43987;DHT22;29650;47.378;8.300;2023-04-06T01:19:08;1.90;75.60
43987;DHT22;29650;47.378;8.300;2023-04-06T01:21:36;2.00;75.70
43987;DHT22;29650;47.378;8.300;2023-04-06T01:24:05;2.10;75.30
43987;DHT22;29650;47.378;8.300;2023-04-06T01:26:32;2.10;75.20
43987;DHT22;29650;47.378;8.300;2023-04-06T01:29:00;2.10;75.00
43987;DHT22;29650;47.378;8.300;2023-04-06T01:31:27;2.00;75.70
43987;DHT22;29650;47.378;8.300;2023-04-06T01:33:55;1.90;75.80
43987;DHT22;29650;47.378;8.300;2023-04-06T01:36:22;1.90;76.00
43987;DHT22;29650;47.378;8.300;2023-04-06T01:38:49;1.90;76.60
43987;DHT22;29650;47.378;8.300;2023-04-06T01:41:17;1.80;76.90
43987;DHT22;29650;47.378;8.300;2023-04-06T01:43:45;1.80;76.60
43987;DHT22;29650;47.378;8.300;2023-04-06T01:46:12;1.80;76.20
43987;DHT22;29650;47.378;8.300;2023-04-06T01:48:39;1.60;76.80
43987;DHT22;29650;47.378;8.300;2023-04-06T01:51:06;1.50;77.40
43987;DHT22;29650;47.378;8.300;2023-04-06T01:53:33;1.40;78.40
43987;DHT22;29650;47.378;8.300;2023-04-06T01:56:00;1.40;79.10
43987;DHT22;29650;47.378;8.300;2023-04-06T01:58:28;1.40;79.60
43987;DHT22;29650;47.378;8.300;2023-04-06T02:00:55;1.50;79.90
43987;DHT22;29650;47.378;8.300;2023-04-06T02:03:22;1.60;80.00
43987;DHT22;29650;47.378;8.300;2023-04-06T02:05:49;1.50;79.10
43987;DHT22;29650;47.378;8.300;2023-04-06T02:08:16;1.30;79.20
43987;DHT22;29650;47.378;8.300;2023-04-06T02:10:43;1.20;80.30
43987;DHT22;29650;47.378;8.300;2023-04-06T02:13:10;1.40;80.60
43987;DHT22;29650;47.378;8.300;2023-04-06T02:15:38;1.30;80.30
43987;DHT22;29650;47.378;8.300;2023-04-06T02:18:05;1.30;80.00
43987;DHT22;29650;47.378;8.300;2023-04-06T02:20:32;1.20;80.40
43987;DHT22;29650;47.378;8.300;2023-04-06T02:22:59;1.10;80.70
43987;DHT22;29650;47.378;8.300;2023-04-06T02:25:27;1.20;81.30
43987;DHT22;29650;47.378;8.300;2023-04-06T02:27:54;1.10;81.00
43987;DHT22;29650;47.378;8.300;2023-04-06T02:30:21;1.40;81.60
43987;DHT22;29650;47.378;8.300;2023-04-06T02:32:49;1.40;80.60
43987;DHT22;29650;47.378;8.300;2023-04-06T02:35:17;1.40;80.80
43987;DHT22;29650;47.378;8.300;2023-04-06T02:37:43;1.30;80.80
43987;DHT22;29650;47.378;8.300;2023-04-06T02:40:11;1.20;81.20
43987;DHT22;29650;47.378;8.300;2023-04-06T02:42:38;1.30;81.30
43987;DHT22;29650;47.378;8.300;2023-04-06T02:45:06;1.20;81.40
43987;DHT22;29650;47.378;8.300;2023-04-06T02:47:33;1.20;81.40
43987;DHT22;29650;47.378;8.300;2023-04-06T02:50:01;1.20;81.30
43987;DHT22;29650;47.378;8.300;2023-04-06T02:52:28;1.20;81.20
43987;DHT22;29650;47.378;8.300;2023-04-06T02:54:55;1.10;81.30
43987;DHT22;29650;47.378;8.300;2023-04-06T02:57:22;1.20;81.60
43987;DHT22;29650;47.378;8.300;2023-04-06T02:59:49;1.20;81.50
43987;DHT22;29650;47.378;8.300;2023-04-06T03:02:16;1.20;81.40
43987;DHT22;29650;47.378;8.300;2023-04-06T03:04:44;1.00;80.90
43987;DHT22;29650;47.378;8.300;2023-04-06T03:07:12;1.10;81.70
43987;DHT22;29650;47.378;8.300;2023-04-06T03:09:39;1.10;81.20
43987;DHT22;29650;47.378;8.300;2023-04-06T03:12:06;1.10;81.90
43987;DHT22;29650;47.378;8.300;2023-04-06T03:14:33;1.00;81.50
43987;DHT22;29650;47.378;8.300;2023-04-06T03:17:00;1.00;81.90
43987;DHT22;29650;47.378;8.300;2023-04-06T03:19:27;1.00;81.90
43987;DHT22;29650;47.378;8.300;2023-04-06T03:21:54;1.00;81.80
43987;DHT22;29650;47.378;8.300;2023-04-06T03:24:23;0.90;81.90
43987;DHT22;29650;47.378;8.300;2023-04-06T03:26:50;0.90;81.50
43987;DHT22;29650;47.378;8.300;2023-04-06T03:29:17;0.90;82.00
43987;DHT22;29650;47.378;8.300;2023-04-06T03:31:44;1.00;82.40
43987;DHT22;29650;47.378;8.300;2023-04-06T03:34:11;1.00;82.20
43987;DHT22;29650;47.378;8.300;2023-04-06T03:36:38;0.90;82.80
43987;DHT22;29650;47.378;8.300;2023-04-06T03:39:05;0.80;83.70
43987;DHT22;29650;47.378;8.300;2023-04-06T03:41:33;0.80;83.90
43987;DHT22;29650;47.378;8.300;2023-04-06T03:44:00;0.90;83.80
43987;DHT22;29650;47.378;8.300;2023-04-06T03:46:27;0.80;83.80
43987;DHT22;29650;47.378;8.300;2023-04-06T03:48:54;0.70;84.10
43987;DHT22;29650;47.378;8.300;2023-04-06T03:51:21;0.70;84.00
43987;DHT22;29650;47.378;8.300;2023-04-06T03:53:48;0.70;83.90
43987;DHT22;29650;47.378;8.300;2023-04-06T03:56:15;0.70;84.20
43987;DHT22;29650;47.378;8.300;2023-04-06T03:58:44;0.70;84.50
43987;DHT22;29650;47.378;8.300;2023-04-06T04:01:14;0.70;84.80
43987;DHT22;29650;47.378;8.300;2023-04-06T04:03:44;0.70;83.90
43987;DHT22;29650;47.378;8.300;2023-04-06T04:06:11;0.90;87.30
43987;DHT22;29650;47.378;8.300;2023-04-06T04:08:38;0.90;85.00
43987;DHT22;29650;47.378;8.300;2023-04-06T04:11:05;0.80;84.80
43987;DHT22;29650;47.378;8.300;2023-04-06T04:13:32;0.80;84.00
43987;DHT22;29650;47.378;8.300;2023-04-06T04:16:01;0.90;83.80
43987;DHT22;29650;47.378;8.300;2023-04-06T04:18:28;0.70;84.90
43987;DHT22;29650;47.378;8.300;2023-04-06T04:20:55;0.60;86.00
43987;DHT22;29650;47.378;8.300;2023-04-06T04:23:22;0.60;87.30
43987;DHT22;29650;47.378;8.300;2023-04-06T04:25:49;0.50;88.50
43987;DHT22;29650;47.378;8.300;2023-04-06T04:28:16;0.50;90.00
43987;DHT22;29650;47.378;8.300;2023-04-06T04:30:43;0.50;90.30
43987;DHT22;29650;47.378;8.300;2023-04-06T04:33:11;0.50;90.40
43987;DHT22;29650;47.378;8.300;2023-04-06T04:35:38;0.50;90.30
43987;DHT22;29650;47.378;8.300;2023-04-06T04:38:05;0.50;89.20
43987;DHT22;29650;47.378;8.300;2023-04-06T04:40:32;0.40;87.90
43987;DHT22;29650;47.378;8.300;2023-04-06T04:42:59;0.40;87.60
43987;DHT22;29650;47.378;8.300;2023-04-06T04:45:26;0.50;88.50
43987;DHT22;29650;47.378;8.300;2023-04-06T04:47:53;0.60;88.30
43987;DHT22;29650;47.378;8.300;2023-04-06T04:50:22;0.60;87.80
43987;DHT22;29650;47.378;8.300;2023-04-06T04:52:49;0.60;87.00
43987;DHT22;29650;47.378;8.300;2023-04-06T04:55:16;0.50;86.80
43987;DHT22;29650;47.378;8.300;2023-04-06T04:57:44;0.40;86.90
43987;DHT22;29650;47.378;8.300;2023-04-06T05:00:12;0.50;87.40
43987;DHT22;29650;47.378;8.300;2023-04-06T05:02:39;0.40;87.10
43987;DHT22;29650;47.378;8.300;2023-04-06T05:05:06;0.50;87.40
43987;DHT22;29650;47.378;8.300;2023-04-06T05:07:35;0.40;87.20
43987;DHT22;29650;47.378;8.300;2023-04-06T05:10:02;0.50;87.70
43987;DHT22;29650;47.378;8.300;2023-04-06T05:12:29;0.50;87.30
43987;DHT22;29650;47.378;8.300;2023-04-06T05:14:56;0.50;87.10
43987;DHT22;29650;47.378;8.300;2023-04-06T05:17:23;0.50;86.80
43987;DHT22;29650;47.378;8.300;2023-04-06T05:19:51;0.40;87.70
43987;DHT22;29650;47.378;8.300;2023-04-06T05:22:18;0.30;88.40
43987;DHT22;29650;47.378;8.300;2023-04-06T05:24:46;0.40;88.70
43987;DHT22;29650;47.378;8.300;2023-04-06T05:27:13;0.40;89.50
43987;DHT22;29650;47.378;8.300;2023-04-06T05:29:41;0.40;89.90
43987;DHT22;29650;47.378;8.300;2023-04-06T05:32:08;0.40;89.60
43987;DHT22;29650;47.378;8.300;2023-04-06T05:34:35;0.60;89.50
43987;DHT22;29650;47.378;8.300;2023-04-06T05:37:03;0.40;88.60
43987;DHT22;29650;47.378;8.300;2023-04-06T05:39:30;0.60;88.40
43987;DHT22;29650;47.378;8.300;2023-04-06T05:41:58;0.80;87.90
43987;DHT22;29650;47.378;8.300;2023-04-06T05:44:28;0.80;86.50
43987;DHT22;29650;47.378;8.300;2023-04-06T05:46:55;0.80;87.00
43987;DHT22;29650;47.378;8.300;2023-04-06T05:49:22;0.70;88.20
43987;DHT22;29650;47.378;8.300;2023-04-06T05:51:49;0.60;90.20
43987;DHT22;29650;47.378;8.300;2023-04-06T05:54:18;0.70;91.30
43987;DHT22;29650;47.378;8.300;2023-04-06T05:56:46;0.70;92.60
43987;DHT22;29650;47.378;8.300;2023-04-06T05:59:15;0.80;91.60
43987;DHT22;29650;47.378;8.300;2023-04-06T06:01:42;1.00;90.80
43987;DHT22;29650;47.378;8.300;2023-04-06T06:04:09;1.30;90.30
43987;DHT22;29650;47.378;8.300;2023-04-06T06:06:35;1.40;89.60
43987;DHT22;29650;47.378;8.300;2023-04-06T06:09:03;1.50;88.40
43987;DHT22;29650;47.378;8.300;2023-04-06T06:11:30;1.60;88.80
43987;DHT22;29650;47.378;8.300;2023-04-06T06:13:58;1.60;88.70
43987;DHT22;29650;47.378;8.300;2023-04-06T06:16:27;1.60;87.70
43987;DHT22;29650;47.378;8.300;2023-04-06T06:18:54;1.60;87.90
43987;DHT22;29650;47.378;8.300;2023-04-06T06:21:20;1.40;89.60
43987;DHT22;29650;47.378;8.300;2023-04-06T06:23:48;1.50;90.10
43987;DHT22;29650;47.378;8.300;2023-04-06T06:26:15;1.70;90.50
43987;DHT22;29650;47.378;8.300;2023-04-06T06:28:42;1.80;90.40
43987;DHT22;29650;47.378;8.300;2023-04-06T06:31:10;1.80;90.80
43987;DHT22;29650;47.378;8.300;2023-04-06T06:33:38;1.80;91.50
43987;DHT22;29650;47.378;8.300;2023-04-06T06:36:05;1.80;91.40
43987;DHT22;29650;47.378;8.300;2023-04-06T06:38:32;1.90;90.50
43987;DHT22;29650;47.378;8.300;2023-04-06T06:41:00;2.20;88.40
43987;DHT22;29650;47.378;8.300;2023-04-06T06:43:27;2.20;88.00
43987;DHT22;29650;47.378;8.300;2023-04-06T06:45:54;2.10;86.30
43987;DHT22;29650;47.378;8.300;2023-04-06T06:48:21;2.20;85.60
43987;DHT22;29650;47.378;8.300;2023-04-06T06:50:49;2.40;83.80
43987;DHT22;29650;47.378;8.300;2023-04-06T06:53:16;2.60;83.10
43987;DHT22;29650;47.378;8.300;2023-04-06T06:55:43;2.80;81.50
43987;DHT22;29650;47.378;8.300;2023-04-06T06:58:11;2.80;80.10
43987;DHT22;29650;47.378;8.300;2023-04-06T07:00:38;2.80;79.20
43987;DHT22;29650;47.378;8.300;2023-04-06T07:03:05;3.00;80.00
43987;DHT22;29650;47.378;8.300;2023-04-06T07:05:32;4.30;82.00
43987;DHT22;29650;47.378;8.300;2023-04-06T07:08:00;3.00;81.70
43987;DHT22;29650;47.378;8.300;2023-04-06T07:10:27;3.10;80.90
43987;DHT22;29650;47.378;8.300;2023-04-06T07:12:54;3.40;80.60
43987;DHT22;29650;47.378;8.300;2023-04-06T07:15:21;3.50;79.70
43987;DHT22;29650;47.378;8.300;2023-04-06T07:17:48;3.70;77.70
43987;DHT22;29650;47.378;8.300;2023-04-06T07:20:16;3.60;78.70
43987;DHT22;29650;47.378;8.300;2023-04-06T07:22:43;3.60;78.20
43987;DHT22;29650;47.378;8.300;2023-04-06T07:25:12;3.70;78.50
43987;DHT22;29650;47.378;8.300;2023-04-06T07:27:39;3.90;76.80
43987;DHT22;29650;47.378;8.300;2023-04-06T07:30:07;4.00;76.30
43987;DHT22;29650;47.378;8.300;2023-04-06T07:32:34;4.10;75.10
43987;DHT22;29650;47.378;8.300;2023-04-06T07:35:01;4.20;75.10
43987;DHT22;29650;47.378;8.300;2023-04-06T07:37:28;4.30;74.90
43987;DHT22;29650;47.378;8.300;2023-04-06T07:39:55;4.40;72.90
43987;DHT22;29650;47.378;8.300;2023-04-06T07:42:24;4.40;73.20
43987;DHT22;29650;47.378;8.300;2023-04-06T07:44:51;4.50;73.30
43987;DHT22;29650;47.378;8.300;2023-04-06T07:47:18;4.60;73.70
43987;DHT22;29650;47.378;8.300;2023-04-06T07:49:44;4.60;73.50
43987;DHT22;29650;47.378;8.300;2023-04-06T07:52:12;4.60;73.10
43987;DHT22;29650;47.378;8.300;2023-04-06T07:54:40;4.70;74.90
43987;DHT22;29650;47.378;8.300;2023-04-06T07:57:07;4.90;74.60
43987;DHT22;29650;47.378;8.300;2023-04-06T07:59:35;5.60;73.60
43987;DHT22;29650;47.378;8.300;2023-04-06T08:02:02;5.60;76.00
43987;DHT22;29650;47.378;8.300;2023-04-06T08:04:29;5.20;71.70
43987;DHT22;29650;47.378;8.300;2023-04-06T08:06:56;5.20;70.20
43987;DHT22;29650;47.378;8.300;2023-04-06T08:09:23;5.60;72.50
43987;DHT22;29650;47.378;8.300;2023-04-06T08:11:50;5.50;69.50
43987;DHT22;29650;47.378;8.300;2023-04-06T08:14:17;5.50;68.70
43987;DHT22;29650;47.378;8.300;2023-04-06T08:16:45;5.60;68.00
43987;DHT22;29650;47.378;8.300;2023-04-06T08:19:12;5.70;67.30
43987;DHT22;29650;47.378;8.300;2023-04-06T08:21:42;5.70;69.60
43987;DHT22;29650;47.378;8.300;2023-04-06T08:24:09;5.80;68.20
43987;DHT22;29650;47.378;8.300;2023-04-06T08:26:36;5.80;67.60
43987;DHT22;29650;47.378;8.300;2023-04-06T08:29:03;5.80;68.10
43987;DHT22;29650;47.378;8.300;2023-04-06T08:31:32;6.00;68.40
43987;DHT22;29650;47.378;8.300;2023-04-06T08:34:01;6.00;68.50
43987;DHT22;29650;47.378;8.300;2023-04-06T08:36:28;6.20;70.40
43987;DHT22;29650;47.378;8.300;2023-04-06T08:38:56;6.30;67.90
43987;DHT22;29650;47.378;8.300;2023-04-06T08:41:23;6.10;66.20
43987;DHT22;29650;47.378;8.300;2023-04-06T08:43:55;6.40;68.90
43987;DHT22;29650;47.378;8.300;2023-04-06T08:46:23;6.60;68.00
43987;DHT22;29650;47.378;8.300;2023-04-06T08:48:55;6.70;67.40
43987;DHT22;29650;47.378;8.300;2023-04-06T08:51:23;6.80;66.00
43987;DHT22;29650;47.378;8.300;2023-04-06T08:53:52;6.90;66.70
43987;DHT22;29650;47.378;8.300;2023-04-06T08:56:20;6.80;64.70
43987;DHT22;29650;47.378;8.300;2023-04-06T08:58:49;7.10;64.10
43987;DHT22;29650;47.378;8.300;2023-04-06T09:01:18;7.20;64.80
43987;DHT22;29650;47.378;8.300;2023-04-06T09:03:48;7.30;64.30
43987;DHT22;29650;47.378;8.300;2023-04-06T09:06:16;7.40;62.90
43987;DHT22;29650;47.378;8.300;2023-04-06T09:08:44;7.30;61.50
43987;DHT22;29650;47.378;8.300;2023-04-06T09:11:11;7.40;61.20
43987;DHT22;29650;47.378;8.300;2023-04-06T09:13:45;7.60;62.00
43987;DHT22;29650;47.378;8.300;2023-04-06T09:16:12;7.70;61.20
43987;DHT22;29650;47.378;8.300;2023-04-06T09:18:40;7.60;58.90
43987;DHT22;29650;47.378;8.300;2023-04-06T09:21:07;7.80;58.60
43987;DHT22;29650;47.378;8.300;2023-04-06T09:23:35;7.80;57.20
43987;DHT22;29650;47.378;8.300;2023-04-06T09:26:10;7.90;58.00
43987;DHT22;29650;47.378;8.300;2023-04-06T09:28:45;7.90;58.40
43987;DHT22;29650;47.378;8.300;2023-04-06T09:31:14;8.00;57.60
43987;DHT22;29650;47.378;8.300;2023-04-06T09:33:42;8.00;57.30
43987;DHT22;29650;47.378;8.300;2023-04-06T09:36:09;8.20;58.30
43987;DHT22;29650;47.378;8.300;2023-04-06T09:38:37;8.40;57.90
43987;DHT22;29650;47.378;8.300;2023-04-06T09:41:04;8.50;56.10
43987;DHT22;29650;47.378;8.300;2023-04-06T09:43:33;8.50;53.40
43987;DHT22;29650;47.378;8.300;2023-04-06T09:46:01;8.60;49.40
43987;DHT22;29650;47.378;8.300;2023-04-06T09:48:31;8.70;51.90
43987;DHT22;29650;47.378;8.300;2023-04-06T09:51:04;8.80;50.20
43987;DHT22;29650;47.378;8.300;2023-04-06T09:53:35;8.90;50.40
43987;DHT22;29650;47.378;8.300;2023-04-06T09:56:05;8.80;49.50
43987;DHT22;29650;47.378;8.300;2023-04-06T09:58:37;8.90;49.90
43987;DHT22;29650;47.378;8.300;2023-04-06T10:01:09;9.10;49.50
43987;DHT22;29650;47.378;8.300;2023-04-06T10:03:41;9.20;47.60
43987;DHT22;29650;47.378;8.300;2023-04-06T10:06:13;9.20;47.40
43987;DHT22;29650;47.378;8.300;2023-04-06T10:08:43;9.30;48.20
43987;DHT22;29650;47.378;8.300;2023-04-06T10:11:12;9.30;45.00
43987;DHT22;29650;47.378;8.300;2023-04-06T10:13:41;9.30;41.30
43987;DHT22;29650;47.378;8.300;2023-04-06T10:16:10;9.30;40.20
43987;DHT22;29650;47.378;8.300;2023-04-06T10:18:38;9.40;39.70
43987;DHT22;29650;47.378;8.300;2023-04-06T10:21:08;9.50;41.10
43987;DHT22;29650;47.378;8.300;2023-04-06T10:23:39;9.70;39.60
43987;DHT22;29650;47.378;8.300;2023-04-06T10:26:13;9.90;38.70
43987;DHT22;29650;47.378;8.300;2023-04-06T10:28:44;9.70;37.00
43987;DHT22;29650;47.378;8.300;2023-04-06T10:31:12;9.80;36.00
43987;DHT22;29650;47.378;8.300;2023-04-06T10:33:39;9.90;37.30
43987;DHT22;29650;47.378;8.300;2023-04-06T10:36:13;10.30;38.00
43987;DHT22;29650;47.378;8.300;2023-04-06T10:38:40;10.10;38.10
43987;DHT22;29650;47.378;8.300;2023-04-06T10:41:09;10.30;37.50
43987;DHT22;29650;47.378;8.300;2023-04-06T10:43:37;10.40;37.00
43987;DHT22;29650;47.378;8.300;2023-04-06T10:46:07;10.10;37.00
43987;DHT22;29650;47.378;8.300;2023-04-06T10:48:37;10.10;35.60
43987;DHT22;29650;47.378;8.300;2023-04-06T10:51:08;10.20;37.00
43987;DHT22;29650;47.378;8.300;2023-04-06T10:53:36;10.30;37.30
43987;DHT22;29650;47.378;8.300;2023-04-06T10:56:04;10.50;36.50
43987;DHT22;29650;47.378;8.300;2023-04-06T10:58:35;10.60;35.20
43987;DHT22;29650;47.378;8.300;2023-04-06T11:01:04;10.50;35.60
43987;DHT22;29650;47.378;8.300;2023-04-06T11:03:31;10.50;33.50
43987;DHT22;29650;47.378;8.300;2023-04-06T11:05:59;10.60;33.50
43987;DHT22;29650;47.378;8.300;2023-04-06T11:08:28;11.10;35.60
43987;DHT22;29650;47.378;8.300;2023-04-06T11:11:06;10.80;32.80
43987;DHT22;29650;47.378;8.300;2023-04-06T11:13:40;11.00;32.20
43987;DHT22;29650;47.378;8.300;2023-04-06T11:16:14;11.00;32.70
43987;DHT22;29650;47.378;8.300;2023-04-06T11:18:52;10.90;32.80
43987;DHT22;29650;47.378;8.300;2023-04-06T11:21:34;10.90;32.20
43987;DHT22;29650;47.378;8.300;2023-04-06T11:24:06;11.10;34.70
43987;DHT22;29650;47.378;8.300;2023-04-06T11:26:37;10.90;33.00
43987;DHT22;29650;47.378;8.300;2023-04-06T11:29:05;10.80;31.50
43987;DHT22;29650;47.378;8.300;2023-04-06T11:31:38;10.90;32.40
43987;DHT22;29650;47.378;8.300;2023-04-06T11:34:10;11.20;33.20
43987;DHT22;29650;47.378;8.300;2023-04-06T11:36:40;11.20;32.80
43987;DHT22;29650;47.378;8.300;2023-04-06T11:39:07;11.40;32.70
43987;DHT22;29650;47.378;8.300;2023-04-06T11:41:34;11.30;31.90
43987;DHT22;29650;47.378;8.300;2023-04-06T11:44:01;11.20;31.10
43987;DHT22;29650;47.378;8.300;2023-04-06T11:46:29;11.30;32.20
43987;DHT22;29650;47.378;8.300;2023-04-06T11:49:00;11.40;32.50
43987;DHT22;29650;47.378;8.300;2023-04-06T11:51:28;11.30;30.10
43987;DHT22;29650;47.378;8.300;2023-04-06T11:53:55;11.50;30.50
43987;DHT22;29650;47.378;8.300;2023-04-06T11:56:29;11.40;29.30
43987;DHT22;29650;47.378;8.300;2023-04-06T11:58:57;11.70;29.00
43987;DHT22;29650;47.378;8.300;2023-04-06T12:01:25;11.70;28.00
43987;DHT22;29650;47.378;8.300;2023-04-06T12:03:53;11.90;29.60
43987;DHT22;29650;47.378;8.300;2023-04-06T12:06:21;12.20;30.60
43987;DHT22;29650;47.378;8.300;2023-04-06T12:08:48;12.40;29.40
43987;DHT22;29650;47.378;8.300;2023-04-06T12:11:15;12.20;30.30
43987;DHT22;29650;47.378;8.300;2023-04-06T12:13:42;12.30;29.50
43987;DHT22;29650;47.378;8.300;2023-04-06T12:16:09;12.40;30.20
43987;DHT22;29650;47.378;8.300;2023-04-06T12:18:36;12.50;29.30
43987;DHT22;29650;47.378;8.300;2023-04-06T12:21:03;12.50;29.20
43987;DHT22;29650;47.378;8.300;2023-04-06T12:23:32;12.40;28.60
43987;DHT22;29650;47.378;8.300;2023-04-06T12:25:59;12.20;28.20
43987;DHT22;29650;47.378;8.300;2023-04-06T12:28:27;12.30;29.00
43987;DHT22;29650;47.378;8.300;2023-04-06T12:30:55;12.00;28.10
43987;DHT22;29650;47.378;8.300;2023-04-06T12:33:22;12.10;28.80
43987;DHT22;29650;47.378;8.300;2023-04-06T12:35:49;12.50;29.30
43987;DHT22;29650;47.378;8.300;2023-04-06T12:38:16;12.50;28.40
43987;DHT22;29650;47.378;8.300;2023-04-06T12:40:44;12.20;27.50
43987;DHT22;29650;47.378;8.300;2023-04-06T12:43:11;12.00;27.20
43987;DHT22;29650;47.378;8.300;2023-04-06T12:45:39;12.10;27.00
43987;DHT22;29650;47.378;8.300;2023-04-06T12:48:07;11.90;27.50
43987;DHT22;29650;47.378;8.300;2023-04-06T12:50:34;12.30;28.60
43987;DHT22;29650;47.378;8.300;2023-04-06T12:53:01;12.30;27.60
43987;DHT22;29650;47.378;8.300;2023-04-06T12:55:30;12.20;26.80
43987;DHT22;29650;47.378;8.300;2023-04-06T12:58:01;12.40;29.80
43987;DHT22;29650;47.378;8.300;2023-04-06T13:00:28;12.10;28.80
43987;DHT22;29650;47.378;8.300;2023-04-06T13:02:56;12.00;27.80
43987;DHT22;29650;47.378;8.300;2023-04-06T13:05:23;12.20;29.50
43987;DHT22;29650;47.378;8.300;2023-04-06T13:07:50;12.40;30.90
43987;DHT22;29650;47.378;8.300;2023-04-06T13:10:17;12.40;29.00
43987;DHT22;29650;47.378;8.300;2023-04-06T13:12:44;12.30;27.30
43987;DHT22;29650;47.378;8.300;2023-04-06T13:15:12;12.50;28.00
43987;DHT22;29650;47.378;8.300;2023-04-06T13:17:40;12.80;28.70
43987;DHT22;29650;47.378;8.300;2023-04-06T13:20:07;12.40;27.10
43987;DHT22;29650;47.378;8.300;2023-04-06T13:22:34;12.40;26.90
43987;DHT22;29650;47.378;8.300;2023-04-06T13:25:02;12.60;27.20
43987;DHT22;29650;47.378;8.300;2023-04-06T13:27:29;12.80;28.10
43987;DHT22;29650;47.378;8.300;2023-04-06T13:29:59;12.40;26.20
43987;DHT22;29650;47.378;8.300;2023-04-06T13:32:28;12.70;28.20
43987;DHT22;29650;47.378;8.300;2023-04-06T13:34:55;12.80;27.60
43987;DHT22;29650;47.378;8.300;2023-04-06T13:37:22;13.00;28.00
43987;DHT22;29650;47.378;8.300;2023-04-06T13:39:49;12.90;27.40
43987;DHT22;29650;47.378;8.300;2023-04-06T13:42:16;13.20;27.00
43987;DHT22;29650;47.378;8.300;2023-04-06T13:44:43;13.30;27.30
43987;DHT22;29650;47.378;8.300;2023-04-06T13:47:12;13.40;27.90
43987;DHT22;29650;47.378;8.300;2023-04-06T13:49:42;13.40;27.80
43987;DHT22;29650;47.378;8.300;2023-04-06T13:52:09;13.50;28.90
43987;DHT22;29650;47.378;8.300;2023-04-06T13:54:36;12.80;26.60
43987;DHT22;29650;47.378;8.300;2023-04-06T13:57:03;12.80;27.50
43987;DHT22;29650;47.378;8.300;2023-04-06T13:59:33;12.60;26.10
43987;DHT22;29650;47.378;8.300;2023-04-06T14:02:01;12.90;26.30
43987;DHT22;29650;47.378;8.300;2023-04-06T14:04:28;12.80;26.40
43987;DHT22;29650;47.378;8.300;2023-04-06T14:06:57;12.80;25.70
43987;DHT22;29650;47.378;8.300;2023-04-06T14:09:24;12.30;25.50
43987;DHT22;29650;47.378;8.300;2023-04-06T14:11:51;12.40;26.60
43987;DHT22;29650;47.378;8.300;2023-04-06T14:14:18;12.30;26.20
43987;DHT22;29650;47.378;8.300;2023-04-06T14:16:45;12.70;27.10
43987;DHT22;29650;47.378;8.300;2023-04-06T14:19:14;12.40;26.30
43987;DHT22;29650;47.378;8.300;2023-04-06T14:21:43;12.40;26.50
43987;DHT22;29650;47.378;8.300;2023-04-06T14:24:11;12.40;27.10
43987;DHT22;29650;47.378;8.300;2023-04-06T14:26:39;12.50;26.60
43987;DHT22;29650;47.378;8.300;2023-04-06T14:29:07;12.80;26.70
43987;DHT22;29650;47.378;8.300;2023-04-06T14:31:34;12.90;26.80
43987;DHT22;29650;47.378;8.300;2023-04-06T14:34:03;12.90;28.70
43987;DHT22;29650;47.378;8.300;2023-04-06T14:36:31;12.60;28.90
43987;DHT22;29650;47.378;8.300;2023-04-06T14:39:02;12.60;27.80
43987;DHT22;29650;47.378;8.300;2023-04-06T14:41:32;12.60;28.40
43987;DHT22;29650;47.378;8.300;2023-04-06T14:43:59;12.40;26.40
43987;DHT22;29650;47.378;8.300;2023-04-06T14:46:26;12.50;27.10
43987;DHT22;29650;47.378;8.300;2023-04-06T14:48:54;12.70;28.30
43987;DHT22;29650;47.378;8.300;2023-04-06T14:51:21;12.50;28.20
43987;DHT22;29650;47.378;8.300;2023-04-06T14:53:48;12.50;27.60
43987;DHT22;29650;47.378;8.300;2023-04-06T14:56:19;12.50;26.70
43987;DHT22;29650;47.378;8.300;2023-04-06T14:58:48;12.40;28.30
43987;DHT22;29650;47.378;8.300;2023-04-06T15:01:16;12.40;28.60
43987;DHT22;29650;47.378;8.300;2023-04-06T15:03:43;12.60;31.00
43987;DHT22;29650;47.378;8.300;2023-04-06T15:06:13;12.60;33.00
43987;DHT22;29650;47.378;8.300;2023-04-06T15:08:41;12.30;29.70
43987;DHT22;29650;47.378;8.300;2023-04-06T15:11:08;12.20;30.10
43987;DHT22;29650;47.378;8.300;2023-04-06T15:13:34;12.20;31.20
43987;DHT22;29650;47.378;8.300;2023-04-06T15:16:03;12.30;32.80
43987;DHT22;29650;47.378;8.300;2023-04-06T15:18:31;12.30;34.20
43987;DHT22;29650;47.378;8.300;2023-04-06T15:20:58;12.20;31.40
43987;DHT22;29650;47.378;8.300;2023-04-06T15:23:25;12.30;33.80
43987;DHT22;29650;47.378;8.300;2023-04-06T15:25:55;12.20;33.00
43987;DHT22;29650;47.378;8.300;2023-04-06T15:28:22;12.10;31.70
43987;DHT22;29650;47.378;8.300;2023-04-06T15:30:49;12.20;31.50
43987;DHT22;29650;47.378;8.300;2023-04-06T15:33:20;12.30;32.50
43987;DHT22;29650;47.378;8.300;2023-04-06T15:35:47;12.40;33.90
43987;DHT22;29650;47.378;8.300;2023-04-06T15:38:14;12.20;32.00
43987;DHT22;29650;47.378;8.300;2023-04-06T15:40:45;12.20;31.00
43987;DHT22;29650;47.378;8.300;2023-04-06T15:43:13;12.20;30.40